CST,Max TemperatureF,Mean TemperatureF,Min TemperatureF,Max Dew PointF,MeanDew PointF,Min DewpointF,Max Humidity, Mean Humidity, Min Humidity, Max Sea Level PressureIn, Mean Sea Level PressureIn, Min Sea Level PressureIn, Max VisibilityMiles, Mean VisibilityMiles, Min VisibilityMiles, Max Wind SpeedMPH, Mean Wind SpeedMPH, Max Gust SpeedMPH,PrecipitationIn, CloudCover, Events, WindDirDegrees
2012-11-1,53,43,33,34,23,12,61,43,22,29.89,29.86,29.82,20,18,15,17,8,23,0.00,5,,274
2012-11-2,48,42,37,34,32,30,76,65,57,30.12,30.07,29.97,20,19,15,12,10,23,0.00,3,,338
2012-11-3,44,42,41,36,32,30,71,65,61,30.22,30.19,30.14,20,16,10,14,8,,0.00,7,,47
2012-11-4,48,44,39,37,35,32,87,74,62,30.23,30.21,30.19,20,16,15,14,8,21,0.00,5,,353
2012-11-5,44,40,37,32,30,28,81,65,53,30.20,30.18,30.16,15,14,10,14,6,21,0.00,5,,48
2012-11-6,44,35,26,37,32,25,93,78,57,30.07,29.98,29.92,10,6,3,9,5,,0.00,6,Rain,0
2012-11-7,46,40,35,37,35,32,93,79,66,30.16,30.08,29.95,10,8,2,7,2,,0.00,6,Rain,-1
2012-11-8,48,44,39,46,36,32,93,75,57,30.23,30.15,29.86,15,8,2,10,3,,0.00,6,,180
2012-11-9,59,48,37,45,39,34,87,67,51,30.11,30.05,30.00,15,10,5,10,7,,0.00,2,,156
2012-11-10,69,62,55,54,47,45,72,55,46,30.01,29.96,29.89,15,14,10,17,11,37,0.00,5,,173
2012-11-11,71,62,53,54,49,45,94,61,43,29.99,29.88,29.80,15,12,4,29,17,46,0.00,6,Rain,184
2012-11-12,42,37,32,32,22,19,87,59,48,30.32,30.17,30.03,20,16,10,23,15,32,0.00,5,,256
2012-11-13,41,32,24,21,17,14,86,52,33,30.51,30.48,30.43,20,19,15,12,5,,0.00,0,,271
2012-11-14,44,36,28,28,23,21,93,61,39,30.55,30.48,30.41,20,16,15,14,6,,0.00,5,,151
2012-11-15,48,36,23,28,25,21,93,66,34,30.41,30.37,30.33,15,10,4,5,2,,0.00,3,,196
2012-11-16,55,40,24,34,28,21,93,64,31,30.48,30.45,30.40,15,10,5,5,2,,0.00,0,,148
2012-11-17,55,40,26,37,30,23,93,70,29,30.56,30.51,30.47,10,8,7,9,2,,0.00,3,,150
2012-11-18,59,44,30,34,30,28,93,57,31,30.45,30.40,30.36,15,15,15,12,4,,0.00,4,,155
2012-11-19,59,50,42,36,33,30,61,48,36,30.30,30.22,30.14,15,13,10,12,7,,0.00,6,,179
2012-11-20,55,46,37,46,42,36,93,74,62,30.18,30.12,30.09,10,6,2,9,4,,0.00,7,,100
2012-11-21,59,48,37,48,42,36,100,80,59,30.25,30.19,30.14,10,4,0,12,3,,0.00,4,Fog,202
2012-11-22,64,57,50,46,44,43,82,62,45,30.08,29.94,29.82,10,8,4,23,12,34,0.00,5,,187
2012-11-23,39,36,30,30,19,16,70,54,48,30.21,30.06,29.91,20,15,10,29,21,48,0.00,6,,278
2012-11-24,32,30,28,19,16,14,64,57,51,30.26,30.18,30.04,20,16,10,12,9,17,0.00,6,,263
2012-11-25,46,39,32,25,22,21,69,53,37,30.03,29.92,29.87,20,16,15,14,10,,0.00,6,,269
2012-11-26,71,50,30,23,20,18,69,53,13,30.34,30.25,30.14,20,14,10,14,8,18,0.00,7,,317
2012-11-27,35,28,21,16,11,7,68,47,30,30.42,30.33,30.28,20,17,15,9,7,,0.00,4,,244
2012-11-28,46,37,28,23,19,16,74,52,34,30.38,30.33,30.26,20,16,15,12,7,,0.00,1,,245
2012-11-29,51,42,33,32,28,23,70,54,43,30.27,30.19,30.12,15,12,10,12,9,23,0.00,3,,187
2012-11-30,53,47,41,39,32,30,87,63,44,30.15,30.10,30.07,15,15,15,6,3,,0.00,4,,196